createdAt,value
2023-02-25T00:01:14.896Z,4.92
2023-02-25T00:02:48.295Z,4.91
2023-02-25T00:04:21.682Z,4.95
2023-02-25T00:05:53.963Z,4.98
2023-02-25T00:07:28.736Z,4.99
2023-02-25T00:09:02.342Z,5.00
2023-02-25T00:10:35.064Z,5.00
2023-02-25T00:12:10.426Z,5.01
2023-02-25T00:13:44.703Z,5.00
2023-02-25T00:15:18.506Z,4.89
2023-02-25T00:16:56.327Z,4.94
2023-02-25T00:18:31.249Z,4.98
2023-02-25T00:20:05.005Z,4.97
2023-02-25T00:21:39.203Z,4.96
2023-02-25T00:23:13.832Z,4.92
2023-02-25T00:24:46.914Z,4.94
2023-02-25T00:26:20.715Z,4.90
2023-02-25T00:27:55.754Z,4.85
2023-02-25T00:29:30.806Z,4.82
2023-02-25T00:31:07.018Z,4.79
2023-02-25T00:32:40.481Z,4.77
2023-02-25T00:34:13.934Z,4.76
2023-02-25T00:35:47.817Z,4.75
2023-02-25T00:37:20.076Z,4.75
2023-02-25T00:38:55.406Z,4.75
2023-02-25T00:40:29.069Z,4.73
2023-02-25T00:42:02.350Z,4.74
2023-02-25T00:43:37.419Z,4.76
2023-02-25T00:45:12.361Z,4.74
2023-02-25T00:46:46.142Z,4.70
2023-02-25T00:48:18.443Z,4.68
2023-02-25T00:49:52.524Z,4.62
2023-02-25T00:51:27.367Z,4.58
2023-02-25T00:52:59.582Z,4.57
2023-02-25T00:54:32.935Z,4.56
2023-02-25T00:56:07.289Z,4.56
2023-02-25T00:57:40.645Z,4.54
2023-02-25T00:59:14.363Z,4.48
2023-02-25T01:00:52.050Z,4.47
2023-02-25T01:02:24.542Z,4.45
2023-02-25T01:03:59.195Z,4.40
2023-02-25T01:05:32.572Z,4.33
2023-02-25T01:07:06.133Z,4.29
2023-02-25T01:08:39.641Z,4.25
2023-02-25T01:10:13.140Z,4.29
2023-02-25T01:11:47.785Z,4.24
2023-02-25T01:13:20.000Z,4.15
2023-02-25T01:14:56.707Z,4.03
2023-02-25T01:16:31.973Z,4.01
2023-02-25T01:18:05.397Z,3.99
2023-02-25T01:19:38.674Z,3.93
2023-02-25T01:21:17.736Z,3.92
2023-02-25T01:22:51.591Z,3.94
2023-02-25T01:24:27.470Z,3.97
2023-02-25T01:26:00.278Z,4.00
2023-02-25T01:27:33.423Z,3.92
2023-02-25T01:29:08.821Z,3.85
2023-02-25T01:30:43.342Z,3.82
2023-02-25T01:32:17.901Z,3.72
2023-02-25T01:33:51.453Z,3.72
2023-02-25T01:35:26.646Z,3.75
2023-02-25T01:37:00.572Z,3.76
2023-02-25T01:38:35.551Z,3.83
2023-02-25T01:40:10.074Z,3.93
2023-02-25T01:41:43.160Z,3.96
2023-02-25T01:43:19.228Z,4.02
2023-02-25T01:45:24.855Z,4.08
2023-02-25T01:47:01.616Z,4.02
2023-02-25T01:48:40.604Z,4.06
2023-02-25T01:50:12.923Z,4.10
2023-02-25T01:51:50.005Z,4.09
2023-02-25T01:53:27.957Z,4.06
2023-02-25T01:55:02.616Z,4.05
2023-02-25T01:56:41.419Z,4.07
2023-02-25T01:58:19.066Z,4.05
2023-02-25T01:59:54.921Z,4.05
2023-02-25T02:01:33.927Z,4.03
2023-02-25T02:03:16.002Z,3.99
2023-02-25T02:04:51.716Z,3.97
2023-02-25T02:06:32.814Z,3.96
2023-02-25T02:08:05.849Z,3.89
2023-02-25T02:09:40.435Z,3.89
2023-02-25T02:11:14.010Z,3.90
2023-02-25T02:12:48.366Z,3.89
2023-02-25T02:14:26.409Z,3.89
2023-02-25T02:16:18.522Z,3.86
2023-02-25T02:17:57.890Z,3.85
2023-02-25T02:19:43.314Z,3.81
2023-02-25T02:21:37.324Z,3.75
2023-02-25T02:23:46.370Z,3.74
2023-02-25T02:25:51.567Z,3.72
2023-02-25T02:27:28.506Z,3.77
2023-02-25T02:29:26.600Z,3.74
2023-02-25T02:31:21.197Z,3.59
2023-02-25T02:33:04.165Z,3.54
2023-02-25T02:34:46.465Z,3.50
2023-02-25T02:36:28.673Z,3.44
2023-02-25T02:38:13.447Z,3.39
2023-02-25T02:39:53.351Z,3.38
2023-02-25T02:41:34.957Z,3.42
2023-02-25T02:43:22.839Z,3.39
2023-02-25T02:45:01.742Z,3.36
2023-02-25T02:46:41.770Z,3.43
2023-02-25T02:48:18.455Z,3.47
2023-02-25T02:49:56.150Z,3.49
2023-02-25T02:51:35.470Z,3.46
2023-02-25T02:53:14.825Z,3.49
2023-02-25T02:54:54.870Z,3.47
2023-02-25T02:56:30.962Z,3.45
2023-02-25T02:58:10.676Z,3.39
2023-02-25T02:59:51.234Z,3.33
2023-02-25T03:01:29.647Z,3.35
2023-02-25T03:03:09.754Z,3.38
2023-02-25T03:04:46.078Z,3.45
2023-02-25T03:06:24.781Z,3.50
2023-02-25T03:08:07.870Z,3.60
2023-02-25T03:09:45.310Z,3.67
2023-02-25T03:11:18.725Z,3.67
2023-02-25T03:12:50.952Z,3.66
2023-02-25T03:14:24.251Z,3.68
2023-02-25T03:16:00.134Z,3.69
2023-02-25T03:17:40.665Z,3.68
2023-02-25T03:19:19.042Z,3.71
2023-02-25T03:20:55.991Z,3.72
2023-02-25T03:22:33.884Z,3.71
2023-02-25T03:24:12.643Z,3.69
2023-02-25T03:25:49.961Z,3.69
2023-02-25T03:27:29.184Z,3.72
2023-02-25T03:29:07.620Z,3.74
2023-02-25T03:30:48.513Z,3.73
2023-02-25T03:32:23.228Z,3.69
2023-02-25T03:34:01.843Z,3.64
2023-02-25T03:35:40.316Z,3.58
2023-02-25T03:37:19.433Z,3.50
2023-02-25T03:38:56.946Z,3.52
2023-02-25T03:40:32.855Z,3.56
2023-02-25T03:42:13.581Z,3.61
2023-02-25T03:43:51.961Z,3.56
2023-02-25T03:45:25.909Z,3.53
2023-02-25T03:47:01.108Z,3.53
2023-02-25T03:48:36.403Z,3.57
2023-02-25T03:50:17.687Z,3.49
2023-02-25T03:51:57.654Z,3.50
2023-02-25T03:53:32.838Z,3.52
2023-02-25T03:55:18.969Z,3.49
2023-02-25T03:56:53.183Z,3.49
2023-02-25T03:58:26.946Z,3.50
2023-02-25T04:00:00.221Z,3.49
2023-02-25T04:01:34.806Z,3.47
2023-02-25T04:03:08.172Z,3.39
2023-02-25T04:04:41.394Z,3.41
2023-02-25T04:06:14.184Z,3.34
2023-02-25T04:07:49.515Z,3.24
2023-02-25T04:09:23.170Z,3.19
2023-02-25T04:10:56.517Z,3.19
2023-02-25T04:12:28.692Z,3.25
2023-02-25T04:14:01.936Z,3.29
2023-02-25T04:15:34.403Z,3.33
2023-02-25T04:17:07.719Z,3.35
2023-02-25T04:18:41.118Z,3.30
2023-02-25T04:20:17.237Z,3.27
2023-02-25T04:21:50.482Z,3.29
2023-02-25T04:23:24.198Z,3.31
2023-02-25T04:24:57.410Z,3.29
2023-02-25T04:26:30.061Z,3.26
2023-02-25T04:28:03.270Z,3.21
2023-02-25T04:29:36.426Z,3.12
2023-02-25T04:31:09.959Z,3.07
2023-02-25T04:32:43.771Z,3.07
2023-02-25T04:34:17.135Z,3.03
2023-02-25T04:35:51.644Z,2.97
2023-02-25T04:37:24.938Z,2.99
2023-02-25T04:39:01.791Z,2.98
2023-02-25T04:40:34.976Z,2.93
2023-02-25T04:42:08.675Z,2.90
2023-02-25T04:43:41.864Z,2.84
2023-02-25T04:45:16.661Z,2.84
2023-02-25T04:46:52.057Z,2.85
2023-02-25T04:48:25.989Z,2.85
2023-02-25T04:49:58.191Z,2.85
2023-02-25T04:51:31.960Z,2.83
2023-02-25T04:53:04.330Z,2.80
2023-02-25T04:54:39.030Z,2.73
2023-02-25T04:56:12.590Z,2.71
2023-02-25T04:57:46.129Z,2.71
2023-02-25T04:59:18.274Z,2.71
2023-02-25T05:00:52.541Z,2.71
2023-02-25T05:02:25.818Z,2.73
2023-02-25T05:04:01.013Z,2.76
2023-02-25T05:05:34.134Z,2.79
2023-02-25T05:07:07.353Z,2.78
2023-02-25T05:08:41.050Z,2.83
2023-02-25T05:10:15.431Z,2.86
2023-02-25T05:11:48.601Z,2.89
2023-02-25T05:13:21.372Z,2.94
2023-02-25T05:14:54.575Z,2.98
2023-02-25T05:16:28.591Z,2.98
2023-02-25T05:18:02.034Z,2.98
2023-02-25T05:19:35.632Z,2.96
2023-02-25T05:21:09.798Z,2.96
2023-02-25T05:22:43.483Z,2.96
2023-02-25T05:24:16.934Z,2.96
2023-02-25T05:25:50.425Z,2.99
2023-02-25T05:27:23.776Z,2.98
2023-02-25T05:28:57.841Z,2.98
2023-02-25T05:30:31.171Z,2.98
2023-02-25T05:32:03.884Z,3.00
2023-02-25T05:33:38.350Z,2.96
2023-02-25T05:35:11.164Z,2.89
2023-02-25T05:36:46.996Z,2.85
2023-02-25T05:38:20.592Z,2.85
2023-02-25T05:39:53.947Z,2.81
2023-02-25T05:41:27.803Z,2.80
2023-02-25T05:43:01.026Z,2.74
2023-02-25T05:44:34.563Z,2.73
2023-02-25T05:46:12.084Z,2.79
2023-02-25T05:47:45.519Z,2.86
2023-02-25T05:49:18.781Z,2.95
2023-02-25T05:50:52.422Z,3.01
2023-02-25T05:52:24.793Z,3.09
2023-02-25T05:53:58.666Z,3.15
2023-02-25T05:55:31.792Z,3.20
2023-02-25T05:57:07.121Z,3.21
2023-02-25T05:58:40.671Z,3.29
2023-02-25T06:00:15.989Z,3.37
2023-02-25T06:01:49.254Z,3.42
2023-02-25T06:03:22.749Z,3.51
2023-02-25T06:04:56.707Z,3.61
2023-02-25T06:06:32.509Z,3.55
2023-02-25T06:08:05.879Z,3.62
2023-02-25T06:09:40.182Z,3.70
2023-02-25T06:11:18.422Z,3.75
2023-02-25T06:12:54.054Z,3.79
2023-02-25T06:14:27.760Z,3.84
2023-02-25T06:16:03.410Z,3.84
2023-02-25T06:17:37.207Z,3.91
2023-02-25T06:19:13.092Z,3.96
2023-02-25T06:20:46.599Z,4.01
2023-02-25T06:22:20.521Z,4.05
2023-02-25T06:23:53.165Z,4.09
2023-02-25T06:25:30.016Z,4.14
2023-02-25T06:27:03.385Z,4.18
2023-02-25T06:28:39.140Z,4.11
2023-02-25T06:30:13.215Z,4.04
2023-02-25T06:31:46.491Z,4.01
2023-02-25T06:33:19.312Z,4.07
2023-02-25T06:34:52.870Z,4.11
2023-02-25T06:36:26.754Z,4.17
2023-02-25T06:38:01.243Z,4.20
2023-02-25T06:39:34.722Z,4.20
2023-02-25T06:41:09.266Z,4.14
2023-02-25T06:42:42.643Z,4.22
2023-02-25T06:44:17.346Z,4.32
2023-02-25T06:45:50.975Z,4.44
2023-02-25T06:47:24.298Z,4.51
2023-02-25T06:48:57.902Z,4.56
2023-02-25T06:50:31.345Z,4.60
2023-02-25T06:52:04.740Z,4.78
2023-02-25T06:53:38.013Z,4.91
2023-02-25T06:55:11.873Z,4.91
2023-02-25T06:56:45.867Z,4.98
2023-02-25T06:58:19.209Z,5.00
2023-02-25T06:59:54.060Z,5.07
2023-02-25T07:01:28.336Z,5.07
2023-02-25T07:03:03.178Z,5.06
2023-02-25T07:04:36.448Z,5.06
2023-02-25T07:06:10.154Z,5.08
2023-02-25T07:07:43.595Z,5.25
2023-02-25T07:09:16.913Z,5.43
2023-02-25T07:10:50.321Z,5.60
2023-02-25T07:12:23.657Z,5.80
2023-02-25T07:13:57.751Z,5.92
2023-02-25T07:15:32.293Z,5.98
2023-02-25T07:17:05.983Z,6.02
2023-02-25T07:18:39.171Z,6.00
2023-02-25T07:20:13.801Z,6.06
2023-02-25T07:21:47.397Z,6.24
2023-02-25T07:23:21.214Z,6.25
2023-02-25T07:24:54.663Z,6.48
2023-02-25T07:26:28.580Z,6.70
2023-02-25T07:28:01.966Z,7.13
2023-02-25T07:29:35.367Z,7.64
2023-02-25T07:31:15.092Z,8.04
2023-02-25T07:32:48.920Z,8.23
2023-02-25T07:34:22.293Z,8.38
2023-02-25T07:35:56.019Z,8.33
2023-02-25T07:37:29.485Z,8.32
2023-02-25T07:39:04.432Z,8.30
2023-02-25T07:40:39.230Z,8.39
2023-02-25T07:42:12.832Z,8.58
2023-02-25T07:43:46.568Z,8.79
2023-02-25T07:45:20.460Z,9.04
2023-02-25T07:46:55.587Z,9.18
2023-02-25T07:48:28.875Z,9.29
2023-02-25T07:50:02.226Z,9.38
2023-02-25T07:51:36.231Z,9.51
2023-02-25T07:53:09.398Z,9.62
2023-02-25T07:54:42.941Z,9.76
2023-02-25T07:56:15.989Z,9.71
2023-02-25T07:57:49.747Z,9.71
2023-02-25T07:59:23.310Z,9.56
2023-02-25T08:00:56.880Z,9.45
2023-02-25T08:02:32.245Z,9.56
2023-02-25T08:04:09.305Z,9.52
2023-02-25T08:05:43.022Z,9.54
2023-02-25T08:07:16.430Z,9.41
2023-02-25T08:08:51.057Z,9.52
2023-02-25T08:10:24.956Z,9.48
2023-02-25T08:11:58.307Z,9.34
2023-02-25T08:13:30.374Z,9.31
2023-02-25T08:15:04.108Z,9.30
2023-02-25T08:16:39.976Z,9.29
2023-02-25T08:18:13.757Z,9.30
2023-02-25T08:19:47.346Z,9.31
2023-02-25T08:21:23.520Z,9.21
2023-02-25T08:22:57.249Z,9.07
2023-02-25T08:24:30.648Z,8.85
2023-02-25T08:26:05.128Z,8.86
2023-02-25T08:27:38.372Z,9.03
2023-02-25T08:29:12.402Z,9.18
2023-02-25T08:30:45.545Z,9.48
2023-02-25T08:32:18.851Z,9.82
2023-02-25T08:33:55.070Z,10.12
2023-02-25T08:35:28.578Z,10.44
2023-02-25T08:37:02.034Z,10.46
2023-02-25T08:38:35.400Z,10.45
2023-02-25T08:40:11.309Z,10.31
2023-02-25T08:41:45.673Z,10.32
2023-02-25T08:43:18.931Z,10.46
2023-02-25T08:44:52.825Z,10.79
2023-02-25T08:46:29.047Z,11.24
2023-02-25T08:48:02.860Z,11.49
2023-02-25T08:49:37.634Z,11.59
2023-02-25T08:51:12.397Z,11.32
2023-02-25T08:52:46.700Z,11.37
2023-02-25T08:54:20.205Z,11.32
2023-02-25T08:55:53.903Z,11.26
2023-02-25T08:57:27.727Z,11.25
2023-02-25T08:59:01.735Z,11.19
2023-02-25T09:00:36.485Z,10.94
2023-02-25T09:02:15.195Z,11.00
2023-02-25T09:03:52.461Z,11.11
2023-02-25T09:05:27.624Z,11.17
2023-02-25T09:07:01.471Z,11.15
2023-02-25T09:08:34.928Z,11.32
2023-02-25T09:10:10.272Z,11.44
2023-02-25T09:11:44.652Z,11.47
2023-02-25T09:13:19.846Z,11.56
2023-02-25T09:14:53.672Z,11.55
2023-02-25T09:16:28.236Z,11.25
2023-02-25T09:18:01.449Z,11.41
2023-02-25T09:19:35.235Z,11.44
2023-02-25T09:21:10.869Z,11.26
2023-02-25T09:22:44.195Z,11.30
2023-02-25T09:24:18.924Z,11.34
2023-02-25T09:25:52.341Z,11.49
2023-02-25T09:27:25.582Z,11.63
2023-02-25T09:29:01.909Z,11.72
2023-02-25T09:30:35.292Z,11.69
2023-02-25T09:32:10.163Z,11.78
2023-02-25T09:33:44.215Z,11.62
2023-02-25T09:35:17.600Z,11.56
2023-02-25T09:36:52.294Z,11.65
2023-02-25T09:38:26.034Z,11.80
2023-02-25T09:39:59.175Z,11.98
2023-02-25T09:41:36.441Z,12.23
2023-02-25T09:43:21.707Z,12.40
2023-02-25T09:44:59.055Z,12.60
2023-02-25T09:46:33.840Z,12.60
2023-02-25T09:48:16.691Z,12.69
2023-02-25T09:49:55.012Z,12.87
2023-02-25T09:51:34.135Z,13.05
2023-02-25T09:53:17.982Z,13.28
2023-02-25T09:54:56.843Z,13.49
2023-02-25T09:56:31.674Z,13.58
2023-02-25T09:58:10.136Z,13.42
2023-02-25T09:59:43.432Z,13.50
2023-02-25T10:01:27.690Z,13.63
2023-02-25T10:03:07.183Z,13.76
2023-02-25T10:04:49.187Z,13.84
2023-02-25T10:06:30.948Z,13.99
2023-02-25T10:08:19.081Z,14.07
2023-02-25T10:10:05.011Z,14.41
2023-02-25T10:11:51.209Z,14.66
2023-02-25T10:13:35.023Z,14.92
2023-02-25T10:15:38.992Z,15.19
2023-02-25T10:17:19.158Z,15.29
2023-02-25T10:19:04.244Z,15.45
2023-02-25T10:20:59.263Z,15.63
2023-02-25T10:22:46.623Z,15.91
2023-02-25T10:24:30.595Z,16.00
2023-02-25T10:26:09.388Z,16.04
2023-02-25T10:27:49.477Z,16.13
2023-02-25T10:29:29.461Z,16.08
2023-02-25T10:31:07.119Z,16.05
2023-02-25T10:32:43.354Z,16.12
2023-02-25T10:34:22.960Z,15.98
2023-02-25T10:36:02.239Z,15.84
2023-02-25T10:37:37.778Z,15.83
2023-02-25T10:39:12.683Z,15.94
2023-02-25T10:40:47.242Z,16.07
2023-02-25T10:42:20.710Z,16.09
2023-02-25T10:43:55.947Z,16.08
2023-02-25T10:45:31.274Z,16.04
2023-02-25T10:47:07.999Z,15.94
2023-02-25T10:48:43.508Z,15.94
2023-02-25T10:50:27.599Z,16.12
2023-02-25T10:52:10.522Z,16.29
2023-02-25T10:54:07.271Z,16.47
2023-02-25T10:55:52.078Z,16.60
2023-02-25T10:57:28.437Z,16.70
2023-02-25T10:59:04.785Z,16.78
2023-02-25T11:00:38.660Z,16.91
2023-02-25T11:02:23.615Z,16.97
2023-02-25T11:04:00.237Z,17.01
2023-02-25T11:05:40.547Z,16.99
2023-02-25T11:07:34.238Z,16.95
2023-02-25T11:09:38.212Z,16.77
2023-02-25T11:11:21.775Z,16.54
2023-02-25T11:12:57.682Z,16.58
2023-02-25T11:14:32.564Z,16.46
2023-02-25T11:16:09.021Z,16.45
2023-02-25T11:17:45.299Z,16.46
2023-02-25T11:19:25.647Z,16.48
2023-02-25T11:21:01.987Z,16.47
2023-02-25T11:22:40.232Z,16.53
2023-02-25T11:24:17.386Z,16.58
2023-02-25T11:25:53.821Z,16.65
2023-02-25T11:27:37.848Z,16.70
2023-02-25T11:29:19.128Z,16.66
2023-02-25T11:30:52.947Z,16.66
2023-02-25T11:32:26.442Z,16.59
2023-02-25T11:34:03.500Z,16.57
2023-02-25T11:35:38.530Z,16.66
2023-02-25T11:37:36.984Z,16.75
2023-02-25T11:39:20.071Z,16.72
2023-02-25T11:40:54.198Z,16.66
2023-02-25T11:42:30.253Z,16.64
2023-02-25T11:44:23.789Z,16.64
2023-02-25T11:46:00.978Z,16.60
2023-02-25T11:47:37.095Z,16.51
2023-02-25T11:49:19.324Z,16.49
2023-02-25T11:51:01.430Z,16.55
2023-02-25T11:52:41.768Z,16.50
2023-02-25T11:54:26.011Z,16.52
2023-02-25T11:56:08.331Z,16.44
2023-02-25T11:57:55.401Z,16.39
2023-02-25T11:59:35.452Z,16.36
2023-02-25T12:01:21.536Z,16.38
2023-02-25T12:03:24.783Z,16.43
2023-02-25T12:05:25.204Z,16.49
2023-02-25T12:07:31.134Z,16.49
2023-02-25T12:09:35.432Z,16.50
2023-02-25T12:11:52.421Z,16.53
2023-02-25T12:13:58.036Z,16.48
2023-02-25T12:16:23.618Z,16.36
2023-02-25T12:18:28.145Z,16.38
2023-02-25T12:20:33.491Z,16.32
2023-02-25T12:22:40.808Z,16.32
2023-02-25T12:24:40.070Z,16.31
2023-02-25T12:26:19.936Z,16.17
2023-02-25T12:28:15.320Z,16.05
2023-02-25T12:30:28.864Z,16.00
2023-02-25T12:32:23.232Z,15.88
2023-02-25T12:34:14.487Z,15.88
2023-02-25T12:36:06.974Z,15.94
2023-02-25T12:38:05.458Z,15.99
2023-02-25T12:40:04.586Z,16.09
2023-02-25T12:41:45.860Z,16.12
2023-02-25T12:43:33.010Z,16.11
2023-02-25T12:45:37.869Z,16.24
2023-02-25T12:47:30.931Z,16.38
2023-02-25T12:49:33.797Z,16.50
2023-02-25T12:51:29.591Z,16.77
2023-02-25T12:53:16.757Z,16.96
2023-02-25T12:55:20.461Z,17.11
2023-02-25T12:57:18.799Z,17.23
2023-02-25T12:59:18.532Z,17.35
2023-02-25T13:01:06.275Z,17.44
2023-02-25T13:03:01.353Z,17.54
2023-02-25T13:05:08.128Z,17.62
2023-02-25T13:07:01.528Z,17.56
2023-02-25T13:09:02.144Z,17.60
2023-02-25T13:10:59.272Z,17.61
2023-02-25T13:12:58.021Z,17.62
2023-02-25T13:14:58.677Z,17.64
2023-02-25T13:16:44.002Z,17.63
2023-02-25T13:18:25.278Z,17.62
2023-02-25T13:20:48.338Z,17.61
2023-02-25T13:22:38.364Z,17.58
2023-02-25T13:24:27.732Z,17.60
2023-02-25T13:26:15.771Z,17.58
2023-02-25T13:28:06.610Z,17.59
2023-02-25T13:29:59.833Z,17.55
2023-02-25T13:31:45.496Z,17.61
2023-02-25T13:33:51.538Z,17.60
2023-02-25T13:35:40.710Z,17.50
2023-02-25T13:37:38.043Z,17.50
2023-02-25T13:39:36.747Z,17.49
2023-02-25T13:41:32.981Z,17.47
2023-02-25T13:43:33.196Z,17.47
2023-02-25T13:45:58.183Z,17.43
2023-02-25T13:47:55.269Z,17.37
2023-02-25T13:49:49.463Z,17.31
2023-02-25T13:51:49.775Z,17.23
2023-02-25T13:53:46.551Z,17.20
2023-02-25T13:55:42.822Z,17.20
2023-02-25T13:57:31.905Z,17.18
2023-02-25T13:59:28.055Z,17.23
2023-02-25T14:01:17.171Z,17.23
2023-02-25T14:03:16.732Z,17.20
2023-02-25T14:05:23.372Z,17.27
2023-02-25T14:07:14.463Z,17.32
2023-02-25T14:09:28.888Z,17.34
2023-02-25T14:11:17.450Z,17.34
2023-02-25T14:13:08.020Z,17.34
2023-02-25T14:15:21.648Z,17.30
2023-02-25T14:17:13.525Z,17.21
2023-02-25T14:18:59.256Z,17.21
2023-02-25T14:20:47.509Z,17.21
2023-02-25T14:22:38.510Z,17.20
2023-02-25T14:24:20.620Z,17.20
2023-02-25T14:26:15.029Z,17.18
2023-02-25T14:28:00.690Z,17.12
2023-02-25T14:29:44.135Z,17.07
2023-02-25T14:31:26.150Z,17.04
2023-02-25T14:33:22.506Z,17.02
2023-02-25T14:35:16.601Z,17.14
2023-02-25T14:37:01.769Z,17.30
2023-02-25T14:38:51.231Z,17.35
2023-02-25T14:40:34.118Z,17.38
2023-02-25T14:42:27.004Z,17.49
2023-02-25T14:44:06.355Z,17.53
2023-02-25T14:45:45.716Z,17.59
2023-02-25T14:47:27.468Z,17.67
2023-02-25T14:49:05.239Z,17.71
2023-02-25T14:50:45.788Z,17.75
2023-02-25T14:52:49.295Z,17.78
2023-02-25T14:54:46.016Z,17.82
2023-02-25T14:56:49.359Z,17.81
2023-02-25T14:58:55.433Z,17.80
2023-02-25T15:00:48.505Z,17.84
2023-02-25T15:02:31.431Z,17.85
2023-02-25T15:04:26.112Z,17.85
2023-02-25T15:06:24.384Z,17.82
2023-02-25T15:08:19.949Z,17.83
2023-02-25T15:10:26.325Z,17.80
2023-02-25T15:12:23.126Z,17.76
2023-02-25T15:14:23.967Z,17.72
2023-02-25T15:16:28.448Z,17.67
2023-02-25T15:18:29.164Z,17.64
2023-02-25T15:20:39.298Z,17.63
2023-02-25T15:22:23.974Z,17.58
2023-02-25T15:23:57.874Z,17.58
2023-02-25T15:25:47.920Z,17.56
2023-02-25T15:27:44.509Z,17.53
2023-02-25T15:29:42.875Z,17.43
2023-02-25T15:31:39.181Z,17.46
2023-02-25T15:33:25.083Z,17.43
2023-02-25T15:35:00.905Z,17.40
2023-02-25T15:36:43.564Z,17.36
2023-02-25T15:38:22.750Z,17.27
2023-02-25T15:39:57.816Z,17.17
2023-02-25T15:42:00.850Z,17.10
2023-02-25T15:43:43.240Z,17.02
2023-02-25T15:45:46.720Z,16.94
2023-02-25T15:47:26.398Z,16.88
2023-02-25T15:49:19.972Z,16.81
2023-02-25T15:50:56.967Z,16.71
2023-02-25T15:53:07.060Z,16.59
2023-02-25T15:54:49.755Z,16.48
2023-02-25T15:56:45.446Z,16.37
2023-02-25T15:58:43.243Z,16.12
2023-02-25T16:00:53.509Z,15.95
2023-02-25T16:02:42.477Z,15.85
2023-02-25T16:04:44.008Z,15.80
2023-02-25T16:06:21.515Z,15.74
2023-02-25T16:08:07.313Z,15.59
2023-02-25T16:09:43.323Z,15.53
2023-02-25T16:11:34.640Z,15.50
2023-02-25T16:13:15.894Z,15.49
2023-02-25T16:14:52.017Z,15.47
2023-02-25T16:16:26.535Z,15.47
2023-02-25T16:18:14.459Z,15.42
2023-02-25T16:19:52.599Z,15.37
2023-02-25T16:21:39.261Z,15.29
2023-02-25T16:23:12.773Z,15.25
2023-02-25T16:24:50.254Z,15.16
2023-02-25T16:26:35.452Z,15.10
2023-02-25T16:28:19.649Z,15.10
2023-02-25T16:30:04.617Z,15.12
2023-02-25T16:31:47.618Z,15.11
2023-02-25T16:33:30.639Z,15.40
2023-02-25T16:35:11.569Z,15.84
2023-02-25T16:36:55.044Z,16.22
2023-02-25T16:38:38.152Z,16.45
2023-02-25T16:40:18.072Z,16.65
2023-02-25T16:41:53.069Z,16.77
2023-02-25T16:43:33.558Z,16.81
2023-02-25T16:45:09.929Z,16.83
2023-02-25T16:46:49.481Z,16.80
2023-02-25T16:48:28.333Z,16.74
2023-02-25T16:50:04.550Z,16.69
2023-02-25T16:51:40.379Z,16.63
2023-02-25T16:53:20.494Z,16.57
2023-02-25T16:54:58.464Z,16.48
2023-02-25T16:56:33.761Z,16.43
2023-02-25T16:58:20.978Z,16.35
2023-02-25T17:00:15.151Z,16.28
2023-02-25T17:01:55.153Z,16.14
2023-02-25T17:03:33.212Z,16.04
2023-02-25T17:05:22.726Z,16.02
2023-02-25T17:07:18.280Z,16.02
2023-02-25T17:08:52.509Z,16.04
2023-02-25T17:10:28.764Z,16.02
2023-02-25T17:12:03.928Z,15.98
2023-02-25T17:13:41.690Z,15.92
2023-02-25T17:15:19.420Z,15.86
2023-02-25T17:16:54.192Z,15.80
2023-02-25T17:18:32.921Z,15.74
2023-02-25T17:20:09.852Z,15.72
2023-02-25T17:21:48.292Z,15.69
2023-02-25T20:55:26.414Z,11.09
2023-02-25T20:57:02.420Z,11.05
2023-02-25T20:58:35.682Z,11.05
2023-02-25T21:00:10.174Z,11.04
2023-02-25T21:01:43.926Z,11.03
2023-02-25T21:03:17.397Z,11.05
2023-02-25T21:04:51.644Z,11.09
2023-02-25T21:06:26.904Z,11.08
2023-02-25T21:08:00.334Z,11.04
2023-02-25T21:09:34.154Z,11.01
2023-02-25T21:11:07.728Z,11.03
2023-02-25T21:12:42.388Z,11.02
2023-02-25T21:14:15.740Z,10.98
2023-02-25T21:15:49.165Z,11.02
2023-02-25T21:17:22.496Z,11.03
2023-02-25T21:18:58.195Z,11.13
2023-02-25T21:20:31.472Z,11.22
2023-02-25T21:22:04.860Z,11.27
2023-02-25T21:23:39.811Z,11.30
2023-02-25T21:25:12.990Z,11.26
2023-02-25T21:26:47.080Z,11.27
2023-02-25T21:28:22.146Z,11.18
2023-02-25T21:29:55.352Z,11.22
2023-02-25T21:31:28.607Z,11.23
2023-02-25T21:33:01.858Z,11.22
2023-02-25T21:34:35.340Z,11.03
2023-02-25T21:36:10.228Z,10.85
2023-02-25T21:37:43.499Z,10.85
2023-02-25T21:39:16.689Z,10.85
2023-02-25T21:40:50.252Z,10.79
2023-02-25T21:42:23.613Z,10.86
2023-02-25T21:43:58.197Z,10.88
2023-02-25T21:45:31.473Z,10.90
2023-02-25T21:47:05.090Z,10.89
2023-02-25T21:48:37.378Z,10.88
2023-02-25T21:50:11.815Z,10.86
2023-02-25T21:51:45.019Z,10.84
2023-02-25T21:53:18.436Z,10.76
2023-02-25T21:54:52.797Z,10.79
2023-02-25T21:56:26.922Z,10.79
2023-02-25T21:58:00.758Z,10.81
2023-02-25T21:59:35.387Z,10.83
2023-02-25T22:01:16.236Z,10.76
2023-02-25T22:02:49.363Z,10.79
2023-02-25T22:04:22.730Z,10.79
2023-02-25T22:05:55.995Z,10.81
2023-02-25T22:07:29.181Z,10.78
2023-02-25T22:09:02.691Z,10.75
2023-02-25T22:10:36.574Z,10.77
2023-02-25T22:12:09.950Z,10.78
2023-02-25T22:13:44.236Z,10.77
2023-02-25T22:15:18.951Z,10.77
2023-02-25T22:16:52.193Z,10.69
2023-02-25T22:18:25.684Z,10.70
2023-02-25T22:19:58.961Z,10.68
2023-02-25T22:21:34.287Z,10.61
2023-02-25T22:23:07.722Z,10.60
2023-02-25T22:24:41.023Z,10.53
2023-02-25T22:26:16.049Z,10.55
2023-02-25T22:27:51.040Z,10.55
2023-02-25T22:29:24.501Z,10.52
2023-02-25T22:30:59.623Z,10.53
2023-02-25T22:32:36.518Z,10.47
2023-02-25T22:34:09.737Z,10.41
2023-02-25T22:35:42.202Z,10.35
2023-02-25T22:37:15.580Z,10.34
2023-02-25T22:38:50.154Z,10.33
2023-02-25T22:40:23.557Z,10.31
2023-02-25T22:41:57.232Z,10.27
2023-02-25T22:43:31.043Z,10.20
2023-02-25T22:45:04.482Z,10.24
2023-02-25T22:46:41.209Z,10.30
2023-02-25T22:48:14.127Z,10.34
2023-02-25T22:49:47.408Z,10.31
2023-02-25T22:51:22.791Z,10.29
2023-02-25T22:52:55.158Z,10.26
2023-02-25T22:54:28.923Z,10.30
2023-02-25T22:56:02.945Z,10.24
2023-02-25T22:57:36.290Z,10.13
2023-02-25T22:59:10.214Z,10.05
2023-02-25T23:00:44.705Z,9.98
2023-02-25T23:02:19.290Z,9.93
2023-02-25T23:03:53.782Z,9.90
2023-02-25T23:05:26.984Z,9.82
2023-02-25T23:07:01.159Z,9.80
2023-02-25T23:08:35.221Z,9.81
2023-02-25T23:10:09.811Z,9.83
2023-02-25T23:11:44.902Z,9.77
2023-02-25T23:13:18.362Z,9.71
2023-02-25T23:14:51.708Z,9.72
2023-02-25T23:16:28.804Z,9.69
2023-02-25T23:18:04.137Z,9.68
2023-02-25T23:19:37.680Z,9.68
2023-02-25T23:21:19.299Z,9.67
2023-02-25T23:22:54.007Z,9.71
2023-02-25T23:24:27.386Z,9.73
2023-02-25T23:26:00.813Z,9.72
2023-02-25T23:27:35.288Z,9.73
2023-02-25T23:29:11.219Z,9.71
2023-02-25T23:30:44.459Z,9.67
2023-02-25T23:32:16.851Z,9.66
2023-02-25T23:33:51.479Z,9.64
2023-02-25T23:35:24.936Z,9.52
2023-02-25T23:36:58.542Z,9.58
2023-02-25T23:38:30.824Z,9.59
2023-02-25T23:40:04.056Z,9.66
2023-02-25T23:41:39.266Z,9.56
2023-02-25T23:43:12.480Z,9.59
2023-02-25T23:44:45.851Z,9.59
2023-02-25T23:46:18.964Z,9.62
2023-02-25T23:47:52.172Z,9.60
2023-02-25T23:49:26.962Z,9.57
2023-02-25T23:51:05.324Z,9.55
2023-02-25T23:52:37.646Z,9.41
2023-02-25T23:54:15.596Z,9.36
2023-02-25T23:55:48.856Z,9.37
2023-02-25T23:57:21.479Z,9.29
2023-02-25T23:58:55.635Z,9.31
